sensor_id;sensor_type;location;lat;lon;timestamp;P1;durP1;ratioP1;P2;durP2;ratioP2
41903;SDS011;27586;51.124;4.182;2023-04-25T00:02:17;13.15;;;4.65;;
41903;SDS011;27586;51.124;4.182;2023-04-25T00:04:44;12.45;;;4.72;;
41903;SDS011;27586;51.124;4.182;2023-04-25T00:07:10;12.52;;;5.18;;
41903;SDS011;27586;51.124;4.182;2023-04-25T00:09:36;13.02;;;5.30;;
41903;SDS011;27586;51.124;4.182;2023-04-25T00:12:02;12.70;;;4.93;;
41903;SDS011;27586;51.124;4.182;2023-04-25T00:14:28;14.45;;;5.10;;
41903;SDS011;27586;51.124;4.182;2023-04-25T00:16:54;14.60;;;4.82;;
41903;SDS011;27586;51.124;4.182;2023-04-25T00:19:20;9.18;;;4.68;;
41903;SDS011;27586;51.124;4.182;2023-04-25T00:21:45;12.38;;;5.10;;
41903;SDS011;27586;51.124;4.182;2023-04-25T00:24:12;13.40;;;5.10;;
41903;SDS011;27586;51.124;4.182;2023-04-25T00:26:37;10.35;;;4.63;;
41903;SDS011;27586;51.124;4.182;2023-04-25T00:29:03;11.95;;;5.25;;
41903;SDS011;27586;51.124;4.182;2023-04-25T00:31:29;11.00;;;4.82;;
41903;SDS011;27586;51.124;4.182;2023-04-25T00:33:55;12.73;;;4.80;;
41903;SDS011;27586;51.124;4.182;2023-04-25T00:36:21;14.63;;;5.25;;
41903;SDS011;27586;51.124;4.182;2023-04-25T00:38:47;12.10;;;4.88;;
41903;SDS011;27586;51.124;4.182;2023-04-25T00:41:13;14.52;;;4.95;;
41903;SDS011;27586;51.124;4.182;2023-04-25T00:43:38;12.35;;;4.90;;
41903;SDS011;27586;51.124;4.182;2023-04-25T00:46:05;11.80;;;5.00;;
41903;SDS011;27586;51.124;4.182;2023-04-25T00:48:31;12.35;;;4.80;;
41903;SDS011;27586;51.124;4.182;2023-04-25T00:50:57;11.85;;;4.70;;
41903;SDS011;27586;51.124;4.182;2023-04-25T00:53:24;13.35;;;4.90;;
41903;SDS011;27586;51.124;4.182;2023-04-25T00:55:52;14.55;;;5.40;;
41903;SDS011;27586;51.124;4.182;2023-04-25T00:58:18;10.27;;;4.88;;
41903;SDS011;27586;51.124;4.182;2023-04-25T01:00:46;12.95;;;4.57;;
41903;SDS011;27586;51.124;4.182;2023-04-25T01:03:16;14.40;;;5.25;;
41903;SDS011;27586;51.124;4.182;2023-04-25T01:05:44;14.60;;;5.25;;
41903;SDS011;27586;51.124;4.182;2023-04-25T01:08:11;13.88;;;4.95;;
41903;SDS011;27586;51.124;4.182;2023-04-25T01:10:37;14.10;;;5.10;;
41903;SDS011;27586;51.124;4.182;2023-04-25T01:13:03;13.18;;;4.95;;
41903;SDS011;27586;51.124;4.182;2023-04-25T01:15:28;14.57;;;4.97;;
41903;SDS011;27586;51.124;4.182;2023-04-25T01:17:54;14.10;;;5.10;;
41903;SDS011;27586;51.124;4.182;2023-04-25T01:20:20;15.38;;;4.78;;
41903;SDS011;27586;51.124;4.182;2023-04-25T01:22:48;14.10;;;5.10;;
41903;SDS011;27586;51.124;4.182;2023-04-25T01:25:14;12.40;;;4.57;;
41903;SDS011;27586;51.124;4.182;2023-04-25T01:27:40;12.57;;;4.47;;
41903;SDS011;27586;51.124;4.182;2023-04-25T01:30:06;13.43;;;4.90;;
41903;SDS011;27586;51.124;4.182;2023-04-25T01:32:33;13.40;;;5.07;;
41903;SDS011;27586;51.124;4.182;2023-04-25T01:35:08;11.73;;;5.00;;
41903;SDS011;27586;51.124;4.182;2023-04-25T01:37:38;11.00;;;4.75;;
41903;SDS011;27586;51.124;4.182;2023-04-25T01:40:05;11.13;;;4.65;;
41903;SDS011;27586;51.124;4.182;2023-04-25T01:42:32;11.48;;;4.90;;
41903;SDS011;27586;51.124;4.182;2023-04-25T01:44:59;13.95;;;5.20;;
41903;SDS011;27586;51.124;4.182;2023-04-25T01:47:24;9.95;;;4.60;;
41903;SDS011;27586;51.124;4.182;2023-04-25T01:49:50;10.63;;;4.85;;
41903;SDS011;27586;51.124;4.182;2023-04-25T01:52:16;14.05;;;4.47;;
41903;SDS011;27586;51.124;4.182;2023-04-25T01:54:42;10.45;;;4.72;;
41903;SDS011;27586;51.124;4.182;2023-04-25T01:57:12;10.77;;;5.38;;
41903;SDS011;27586;51.124;4.182;2023-04-25T01:59:38;15.60;;;5.30;;
41903;SDS011;27586;51.124;4.182;2023-04-25T02:02:05;13.75;;;5.03;;
41903;SDS011;27586;51.124;4.182;2023-04-25T02:04:31;12.32;;;4.80;;
41903;SDS011;27586;51.124;4.182;2023-04-25T02:06:58;12.70;;;5.00;;
41903;SDS011;27586;51.124;4.182;2023-04-25T02:09:23;11.07;;;4.63;;
41903;SDS011;27586;51.124;4.182;2023-04-25T02:11:49;14.95;;;5.10;;
41903;SDS011;27586;51.124;4.182;2023-04-25T02:14:15;16.02;;;4.90;;
41903;SDS011;27586;51.124;4.182;2023-04-25T02:16:41;10.60;;;4.65;;
41903;SDS011;27586;51.124;4.182;2023-04-25T02:19:08;11.68;;;4.25;;
41903;SDS011;27586;51.124;4.182;2023-04-25T02:21:34;16.15;;;5.22;;
41903;SDS011;27586;51.124;4.182;2023-04-25T02:24:00;8.75;;;3.83;;
41903;SDS011;27586;51.124;4.182;2023-04-25T02:26:26;15.07;;;5.03;;
41903;SDS011;27586;51.124;4.182;2023-04-25T02:28:52;15.48;;;4.82;;
41903;SDS011;27586;51.124;4.182;2023-04-25T02:31:18;15.35;;;4.97;;
41903;SDS011;27586;51.124;4.182;2023-04-25T02:33:43;12.55;;;4.43;;
41903;SDS011;27586;51.124;4.182;2023-04-25T02:36:09;14.85;;;4.85;;
41903;SDS011;27586;51.124;4.182;2023-04-25T02:38:35;13.82;;;4.63;;
41903;SDS011;27586;51.124;4.182;2023-04-25T02:41:00;10.40;;;4.68;;
41903;SDS011;27586;51.124;4.182;2023-04-25T02:43:26;13.02;;;4.85;;
41903;SDS011;27586;51.124;4.182;2023-04-25T02:45:52;16.15;;;4.47;;
41903;SDS011;27586;51.124;4.182;2023-04-25T02:48:17;17.10;;;5.47;;
41903;SDS011;27586;51.124;4.182;2023-04-25T02:50:43;13.10;;;5.47;;
41903;SDS011;27586;51.124;4.182;2023-04-25T02:53:09;17.75;;;5.28;;
41903;SDS011;27586;51.124;4.182;2023-04-25T02:55:35;16.58;;;5.47;;
41903;SDS011;27586;51.124;4.182;2023-04-25T02:58:01;10.73;;;4.65;;
41903;SDS011;27586;51.124;4.182;2023-04-25T03:00:26;11.32;;;4.35;;
41903;SDS011;27586;51.124;4.182;2023-04-25T03:02:52;9.73;;;4.10;;
41903;SDS011;27586;51.124;4.182;2023-04-25T03:05:18;9.38;;;3.72;;
41903;SDS011;27586;51.124;4.182;2023-04-25T03:07:44;6.75;;;3.30;;
41903;SDS011;27586;51.124;4.182;2023-04-25T03:10:11;9.40;;;3.50;;
41903;SDS011;27586;51.124;4.182;2023-04-25T03:12:36;8.02;;;3.40;;
41903;SDS011;27586;51.124;4.182;2023-04-25T03:15:02;9.27;;;3.15;;
41903;SDS011;27586;51.124;4.182;2023-04-25T03:17:28;6.82;;;2.67;;
41903;SDS011;27586;51.124;4.182;2023-04-25T03:19:54;7.80;;;2.70;;
41903;SDS011;27586;51.124;4.182;2023-04-25T03:22:20;5.65;;;2.30;;
41903;SDS011;27586;51.124;4.182;2023-04-25T03:24:47;7.30;;;2.72;;
41903;SDS011;27586;51.124;4.182;2023-04-25T03:27:13;7.72;;;2.70;;
41903;SDS011;27586;51.124;4.182;2023-04-25T03:29:38;7.32;;;2.63;;
41903;SDS011;27586;51.124;4.182;2023-04-25T03:32:05;8.10;;;3.30;;
41903;SDS011;27586;51.124;4.182;2023-04-25T03:34:34;4.57;;;2.22;;
41903;SDS011;27586;51.124;4.182;2023-04-25T03:37:00;5.22;;;2.50;;
41903;SDS011;27586;51.124;4.182;2023-04-25T03:39:26;6.90;;;2.47;;
41903;SDS011;27586;51.124;4.182;2023-04-25T03:41:51;5.50;;;2.40;;
41903;SDS011;27586;51.124;4.182;2023-04-25T03:44:17;5.10;;;2.10;;
41903;SDS011;27586;51.124;4.182;2023-04-25T03:46:43;2.10;;;1.52;;
41903;SDS011;27586;51.124;4.182;2023-04-25T03:49:08;5.40;;;1.55;;
41903;SDS011;27586;51.124;4.182;2023-04-25T03:51:34;4.55;;;2.03;;
41903;SDS011;27586;51.124;4.182;2023-04-25T03:54:00;4.80;;;1.75;;
41903;SDS011;27586;51.124;4.182;2023-04-25T03:56:26;4.28;;;1.77;;
41903;SDS011;27586;51.124;4.182;2023-04-25T03:58:51;4.03;;;1.88;;
41903;SDS011;27586;51.124;4.182;2023-04-25T04:01:17;6.13;;;2.38;;
41903;SDS011;27586;51.124;4.182;2023-04-25T04:03:42;4.75;;;2.28;;
41903;SDS011;27586;51.124;4.182;2023-04-25T04:06:08;4.18;;;1.90;;
41903;SDS011;27586;51.124;4.182;2023-04-25T04:08:35;4.07;;;2.00;;
41903;SDS011;27586;51.124;4.182;2023-04-25T04:11:01;4.57;;;1.98;;
41903;SDS011;27586;51.124;4.182;2023-04-25T04:13:27;4.75;;;1.95;;
41903;SDS011;27586;51.124;4.182;2023-04-25T04:15:53;5.55;;;2.00;;
41903;SDS011;27586;51.124;4.182;2023-04-25T04:18:22;4.10;;;1.65;;
41903;SDS011;27586;51.124;4.182;2023-04-25T04:20:48;4.13;;;1.80;;
41903;SDS011;27586;51.124;4.182;2023-04-25T04:23:14;3.80;;;1.70;;
41903;SDS011;27586;51.124;4.182;2023-04-25T04:25:40;3.42;;;1.90;;
41903;SDS011;27586;51.124;4.182;2023-04-25T04:28:06;4.55;;;1.73;;
41903;SDS011;27586;51.124;4.182;2023-04-25T04:30:32;3.50;;;1.65;;
41903;SDS011;27586;51.124;4.182;2023-04-25T04:33:01;4.47;;;1.67;;
41903;SDS011;27586;51.124;4.182;2023-04-25T04:35:27;3.10;;;1.90;;
41903;SDS011;27586;51.124;4.182;2023-04-25T04:37:53;4.93;;;2.47;;
41903;SDS011;27586;51.124;4.182;2023-04-25T04:40:19;3.30;;;2.08;;
41903;SDS011;27586;51.124;4.182;2023-04-25T04:42:45;5.13;;;2.63;;
41903;SDS011;27586;51.124;4.182;2023-04-25T04:45:11;4.47;;;2.10;;
41903;SDS011;27586;51.124;4.182;2023-04-25T04:47:38;4.10;;;2.03;;
41903;SDS011;27586;51.124;4.182;2023-04-25T04:50:05;5.47;;;2.15;;
41903;SDS011;27586;51.124;4.182;2023-04-25T04:52:33;4.85;;;2.25;;
41903;SDS011;27586;51.124;4.182;2023-04-25T04:55:00;3.85;;;2.13;;
41903;SDS011;27586;51.124;4.182;2023-04-25T04:57:28;2.70;;;1.30;;
41903;SDS011;27586;51.124;4.182;2023-04-25T04:59:54;3.60;;;2.33;;
41903;SDS011;27586;51.124;4.182;2023-04-25T05:02:19;5.25;;;2.33;;
41903;SDS011;27586;51.124;4.182;2023-04-25T05:04:45;6.75;;;2.67;;
41903;SDS011;27586;51.124;4.182;2023-04-25T05:07:11;4.38;;;2.13;;
41903;SDS011;27586;51.124;4.182;2023-04-25T05:09:37;4.68;;;2.08;;
41903;SDS011;27586;51.124;4.182;2023-04-25T05:12:03;4.65;;;2.30;;
41903;SDS011;27586;51.124;4.182;2023-04-25T05:14:30;6.22;;;1.92;;
41903;SDS011;27586;51.124;4.182;2023-04-25T05:16:55;3.90;;;1.88;;
41903;SDS011;27586;51.124;4.182;2023-04-25T05:19:21;3.83;;;2.15;;
41903;SDS011;27586;51.124;4.182;2023-04-25T05:21:46;4.63;;;2.47;;
41903;SDS011;27586;51.124;4.182;2023-04-25T05:24:12;4.15;;;2.03;;
41903;SDS011;27586;51.124;4.182;2023-04-25T05:26:38;4.20;;;2.20;;
41903;SDS011;27586;51.124;4.182;2023-04-25T05:29:03;4.88;;;2.15;;
41903;SDS011;27586;51.124;4.182;2023-04-25T05:31:30;6.60;;;2.80;;
41903;SDS011;27586;51.124;4.182;2023-04-25T05:33:56;6.32;;;2.75;;
41903;SDS011;27586;51.124;4.182;2023-04-25T05:36:22;5.35;;;2.00;;
41903;SDS011;27586;51.124;4.182;2023-04-25T05:38:48;7.03;;;2.50;;
41903;SDS011;27586;51.124;4.182;2023-04-25T05:41:13;4.32;;;2.00;;
41903;SDS011;27586;51.124;4.182;2023-04-25T05:43:39;3.40;;;1.88;;
41903;SDS011;27586;51.124;4.182;2023-04-25T05:46:10;4.82;;;1.95;;
41903;SDS011;27586;51.124;4.182;2023-04-25T05:48:36;4.43;;;2.20;;
41903;SDS011;27586;51.124;4.182;2023-04-25T05:51:02;3.38;;;2.05;;
41903;SDS011;27586;51.124;4.182;2023-04-25T05:53:28;5.35;;;1.85;;
41903;SDS011;27586;51.124;4.182;2023-04-25T05:55:54;5.70;;;2.00;;
41903;SDS011;27586;51.124;4.182;2023-04-25T05:58:20;4.75;;;2.08;;
41903;SDS011;27586;51.124;4.182;2023-04-25T06:00:46;4.60;;;2.17;;
41903;SDS011;27586;51.124;4.182;2023-04-25T06:03:12;5.05;;;2.20;;
41903;SDS011;27586;51.124;4.182;2023-04-25T06:05:41;3.95;;;2.10;;
41903;SDS011;27586;51.124;4.182;2023-04-25T06:08:07;4.47;;;2.22;;
41903;SDS011;27586;51.124;4.182;2023-04-25T06:10:34;4.32;;;2.58;;
41903;SDS011;27586;51.124;4.182;2023-04-25T06:12:59;4.70;;;1.88;;
41903;SDS011;27586;51.124;4.182;2023-04-25T06:15:25;4.93;;;1.95;;
41903;SDS011;27586;51.124;4.182;2023-04-25T06:17:51;3.45;;;2.05;;
41903;SDS011;27586;51.124;4.182;2023-04-25T06:20:18;4.88;;;2.10;;
41903;SDS011;27586;51.124;4.182;2023-04-25T06:22:48;5.03;;;1.98;;
41903;SDS011;27586;51.124;4.182;2023-04-25T06:25:15;4.13;;;1.90;;
41903;SDS011;27586;51.124;4.182;2023-04-25T06:27:40;3.10;;;1.80;;
41903;SDS011;27586;51.124;4.182;2023-04-25T06:30:06;5.13;;;1.85;;
41903;SDS011;27586;51.124;4.182;2023-04-25T06:32:32;5.38;;;2.03;;
41903;SDS011;27586;51.124;4.182;2023-04-25T06:34:59;3.00;;;1.77;;
41903;SDS011;27586;51.124;4.182;2023-04-25T06:37:25;5.60;;;1.83;;
41903;SDS011;27586;51.124;4.182;2023-04-25T06:39:51;6.57;;;2.33;;
41903;SDS011;27586;51.124;4.182;2023-04-25T06:42:16;3.60;;;1.60;;
41903;SDS011;27586;51.124;4.182;2023-04-25T06:44:42;5.60;;;1.80;;
41903;SDS011;27586;51.124;4.182;2023-04-25T06:47:08;3.28;;;1.50;;
41903;SDS011;27586;51.124;4.182;2023-04-25T06:49:34;4.57;;;1.88;;
41903;SDS011;27586;51.124;4.182;2023-04-25T06:52:00;5.45;;;1.80;;
41903;SDS011;27586;51.124;4.182;2023-04-25T06:54:25;2.85;;;1.40;;
41903;SDS011;27586;51.124;4.182;2023-04-25T06:56:54;4.05;;;1.80;;
41903;SDS011;27586;51.124;4.182;2023-04-25T06:59:20;4.45;;;1.60;;
41903;SDS011;27586;51.124;4.182;2023-04-25T07:01:46;3.08;;;1.50;;
41903;SDS011;27586;51.124;4.182;2023-04-25T07:04:11;3.85;;;1.48;;
41903;SDS011;27586;51.124;4.182;2023-04-25T07:06:37;5.72;;;1.80;;
41903;SDS011;27586;51.124;4.182;2023-04-25T07:09:07;2.90;;;1.50;;
41903;SDS011;27586;51.124;4.182;2023-04-25T07:11:34;4.15;;;1.60;;
41903;SDS011;27586;51.124;4.182;2023-04-25T07:14:00;4.80;;;1.50;;
41903;SDS011;27586;51.124;4.182;2023-04-25T07:16:26;2.88;;;1.42;;
41903;SDS011;27586;51.124;4.182;2023-04-25T07:18:52;2.10;;;1.30;;
41903;SDS011;27586;51.124;4.182;2023-04-25T07:21:18;2.78;;;1.40;;
41903;SDS011;27586;51.124;4.182;2023-04-25T07:23:44;4.22;;;1.48;;
41903;SDS011;27586;51.124;4.182;2023-04-25T07:26:09;3.45;;;1.42;;
41903;SDS011;27586;51.124;4.182;2023-04-25T07:28:35;5.32;;;2.15;;
41903;SDS011;27586;51.124;4.182;2023-04-25T07:31:01;4.40;;;1.80;;
41903;SDS011;27586;51.124;4.182;2023-04-25T07:33:27;4.95;;;1.48;;
41903;SDS011;27586;51.124;4.182;2023-04-25T07:35:53;2.75;;;1.30;;
41903;SDS011;27586;51.124;4.182;2023-04-25T07:38:20;3.40;;;1.40;;
41903;SDS011;27586;51.124;4.182;2023-04-25T07:40:47;3.38;;;1.25;;
41903;SDS011;27586;51.124;4.182;2023-04-25T07:43:13;2.13;;;1.23;;
41903;SDS011;27586;51.124;4.182;2023-04-25T07:45:41;2.85;;;1.35;;
41903;SDS011;27586;51.124;4.182;2023-04-25T07:48:07;3.78;;;1.25;;
41903;SDS011;27586;51.124;4.182;2023-04-25T07:50:33;2.05;;;1.38;;
41903;SDS011;27586;51.124;4.182;2023-04-25T07:52:59;3.95;;;1.15;;
41903;SDS011;27586;51.124;4.182;2023-04-25T07:55:24;3.03;;;1.00;;
41903;SDS011;27586;51.124;4.182;2023-04-25T07:57:50;2.05;;;1.00;;
41903;SDS011;27586;51.124;4.182;2023-04-25T08:00:16;2.30;;;1.08;;
41903;SDS011;27586;51.124;4.182;2023-04-25T08:02:42;1.35;;;1.00;;
41903;SDS011;27586;51.124;4.182;2023-04-25T08:05:08;3.97;;;1.08;;
41903;SDS011;27586;51.124;4.182;2023-04-25T08:07:36;2.50;;;0.90;;
41903;SDS011;27586;51.124;4.182;2023-04-25T08:10:04;1.63;;;0.90;;
41903;SDS011;27586;51.124;4.182;2023-04-25T08:12:31;1.75;;;1.10;;
41903;SDS011;27586;51.124;4.182;2023-04-25T08:14:56;3.00;;;1.17;;
41903;SDS011;27586;51.124;4.182;2023-04-25T08:17:22;2.30;;;0.88;;
41903;SDS011;27586;51.124;4.182;2023-04-25T08:19:48;2.85;;;0.88;;
41903;SDS011;27586;51.124;4.182;2023-04-25T08:22:14;1.25;;;0.68;;
41903;SDS011;27586;51.124;4.182;2023-04-25T08:24:40;2.75;;;0.82;;
41903;SDS011;27586;51.124;4.182;2023-04-25T08:27:06;3.70;;;1.10;;
41903;SDS011;27586;51.124;4.182;2023-04-25T08:29:32;2.80;;;1.02;;
41903;SDS011;27586;51.124;4.182;2023-04-25T08:31:59;3.25;;;0.90;;
41903;SDS011;27586;51.124;4.182;2023-04-25T08:34:24;1.08;;;0.85;;
41903;SDS011;27586;51.124;4.182;2023-04-25T08:36:50;2.67;;;0.90;;
41903;SDS011;27586;51.124;4.182;2023-04-25T08:39:16;2.30;;;1.05;;
41903;SDS011;27586;51.124;4.182;2023-04-25T08:41:43;3.35;;;1.13;;
41903;SDS011;27586;51.124;4.182;2023-04-25T08:44:09;3.33;;;0.95;;
41903;SDS011;27586;51.124;4.182;2023-04-25T08:46:39;2.70;;;1.00;;
41903;SDS011;27586;51.124;4.182;2023-04-25T08:49:06;1.52;;;0.75;;
41903;SDS011;27586;51.124;4.182;2023-04-25T08:51:34;2.05;;;1.00;;
41903;SDS011;27586;51.124;4.182;2023-04-25T08:54:09;3.10;;;1.05;;
41903;SDS011;27586;51.124;4.182;2023-04-25T08:56:44;2.90;;;0.88;;
41903;SDS011;27586;51.124;4.182;2023-04-25T08:59:11;5.18;;;1.25;;
41903;SDS011;27586;51.124;4.182;2023-04-25T09:01:37;2.20;;;1.02;;
41903;SDS011;27586;51.124;4.182;2023-04-25T09:04:03;0.98;;;0.82;;
41903;SDS011;27586;51.124;4.182;2023-04-25T09:06:29;3.50;;;0.88;;
41903;SDS011;27586;51.124;4.182;2023-04-25T09:09:01;2.20;;;0.90;;
41903;SDS011;27586;51.124;4.182;2023-04-25T09:11:28;1.17;;;0.77;;
41903;SDS011;27586;51.124;4.182;2023-04-25T09:14:09;1.58;;;1.05;;
41903;SDS011;27586;51.124;4.182;2023-04-25T09:16:35;2.00;;;1.10;;
41903;SDS011;27586;51.124;4.182;2023-04-25T09:19:06;1.83;;;1.15;;
41903;SDS011;27586;51.124;4.182;2023-04-25T09:21:31;2.13;;;0.80;;
41903;SDS011;27586;51.124;4.182;2023-04-25T09:23:59;2.75;;;0.88;;
41903;SDS011;27586;51.124;4.182;2023-04-25T09:26:25;2.00;;;0.88;;
41903;SDS011;27586;51.124;4.182;2023-04-25T09:29:00;2.17;;;0.82;;
41903;SDS011;27586;51.124;4.182;2023-04-25T09:31:32;1.02;;;0.77;;
41903;SDS011;27586;51.124;4.182;2023-04-25T09:34:01;2.40;;;0.90;;
41903;SDS011;27586;51.124;4.182;2023-04-25T09:36:27;2.95;;;0.75;;
41903;SDS011;27586;51.124;4.182;2023-04-25T09:38:54;2.33;;;0.93;;
41903;SDS011;27586;51.124;4.182;2023-04-25T09:41:24;2.42;;;0.93;;
41903;SDS011;27586;51.124;4.182;2023-04-25T09:43:50;2.08;;;0.77;;
41903;SDS011;27586;51.124;4.182;2023-04-25T09:46:16;1.52;;;0.90;;
41903;SDS011;27586;51.124;4.182;2023-04-25T09:48:49;1.98;;;0.95;;
41903;SDS011;27586;51.124;4.182;2023-04-25T09:51:16;1.73;;;1.02;;
41903;SDS011;27586;51.124;4.182;2023-04-25T09:53:45;2.17;;;0.88;;
41903;SDS011;27586;51.124;4.182;2023-04-25T09:56:15;1.95;;;0.90;;
41903;SDS011;27586;51.124;4.182;2023-04-25T09:58:41;1.85;;;0.80;;
41903;SDS011;27586;51.124;4.182;2023-04-25T10:01:08;2.88;;;0.85;;
41903;SDS011;27586;51.124;4.182;2023-04-25T10:03:36;4.53;;;1.10;;
41903;SDS011;27586;51.124;4.182;2023-04-25T10:06:07;1.38;;;0.77;;
41903;SDS011;27586;51.124;4.182;2023-04-25T10:08:37;2.22;;;1.13;;
41903;SDS011;27586;51.124;4.182;2023-04-25T10:11:04;4.15;;;1.17;;
41903;SDS011;27586;51.124;4.182;2023-04-25T10:13:31;2.00;;;1.00;;
41903;SDS011;27586;51.124;4.182;2023-04-25T10:15:58;2.90;;;1.00;;
41903;SDS011;27586;51.124;4.182;2023-04-25T10:18:25;2.17;;;1.05;;
41903;SDS011;27586;51.124;4.182;2023-04-25T10:20:53;2.25;;;1.13;;
41903;SDS011;27586;51.124;4.182;2023-04-25T10:23:20;2.15;;;0.77;;
41903;SDS011;27586;51.124;4.182;2023-04-25T10:25:46;1.77;;;1.20;;
41903;SDS011;27586;51.124;4.182;2023-04-25T10:28:13;2.08;;;0.90;;
41903;SDS011;27586;51.124;4.182;2023-04-25T10:30:56;1.67;;;0.90;;
41903;SDS011;27586;51.124;4.182;2023-04-25T10:33:39;1.70;;;1.08;;
41903;SDS011;27586;51.124;4.182;2023-04-25T10:36:14;1.77;;;0.90;;
41903;SDS011;27586;51.124;4.182;2023-04-25T10:38:43;1.25;;;1.00;;
41903;SDS011;27586;51.124;4.182;2023-04-25T10:41:10;4.90;;;1.27;;
41903;SDS011;27586;51.124;4.182;2023-04-25T10:43:40;2.40;;;1.00;;
41903;SDS011;27586;51.124;4.182;2023-04-25T10:48:49;1.10;;;0.70;;
41903;SDS011;27586;51.124;4.182;2023-04-25T10:53:47;1.52;;;0.90;;
41903;SDS011;27586;51.124;4.182;2023-04-25T10:56:28;1.95;;;0.70;;
41903;SDS011;27586;51.124;4.182;2023-04-25T10:59:13;2.58;;;0.90;;
41903;SDS011;27586;51.124;4.182;2023-04-25T11:04:18;1.52;;;0.77;;
41903;SDS011;27586;51.124;4.182;2023-04-25T11:09:23;1.00;;;0.47;;
41903;SDS011;27586;51.124;4.182;2023-04-25T11:11:56;0.35;;;0.35;;
41903;SDS011;27586;51.124;4.182;2023-04-25T11:14:23;0.50;;;0.50;;
41903;SDS011;27586;51.124;4.182;2023-04-25T11:16:52;2.90;;;0.70;;
41903;SDS011;27586;51.124;4.182;2023-04-25T11:19:20;2.45;;;0.73;;
41903;SDS011;27586;51.124;4.182;2023-04-25T11:21:46;1.73;;;0.73;;
41903;SDS011;27586;51.124;4.182;2023-04-25T11:24:12;0.63;;;0.63;;
41903;SDS011;27586;51.124;4.182;2023-04-25T11:26:38;1.42;;;0.65;;
41903;SDS011;27586;51.124;4.182;2023-04-25T11:29:06;2.33;;;0.88;;
41903;SDS011;27586;51.124;4.182;2023-04-25T11:31:32;0.85;;;0.60;;
41903;SDS011;27586;51.124;4.182;2023-04-25T11:33:58;0.57;;;0.50;;
41903;SDS011;27586;51.124;4.182;2023-04-25T11:36:24;0.60;;;0.60;;
41903;SDS011;27586;51.124;4.182;2023-04-25T11:38:51;1.05;;;0.63;;
41903;SDS011;27586;51.124;4.182;2023-04-25T11:41:18;0.50;;;0.50;;
41903;SDS011;27586;51.124;4.182;2023-04-25T11:43:47;2.50;;;0.60;;
41903;SDS011;27586;51.124;4.182;2023-04-25T11:46:14;1.90;;;0.68;;
41903;SDS011;27586;51.124;4.182;2023-04-25T11:48:40;0.63;;;0.60;;
41903;SDS011;27586;51.124;4.182;2023-04-25T11:51:07;2.50;;;0.80;;
41903;SDS011;27586;51.124;4.182;2023-04-25T11:53:33;0.85;;;0.65;;
41903;SDS011;27586;51.124;4.182;2023-04-25T11:55:59;2.92;;;0.80;;
41903;SDS011;27586;51.124;4.182;2023-04-25T11:58:25;0.75;;;0.70;;
41903;SDS011;27586;51.124;4.182;2023-04-25T12:00:51;2.25;;;0.80;;
41903;SDS011;27586;51.124;4.182;2023-04-25T12:03:17;1.60;;;0.82;;
41903;SDS011;27586;51.124;4.182;2023-04-25T12:05:44;1.15;;;0.50;;
41903;SDS011;27586;51.124;4.182;2023-04-25T12:08:13;0.68;;;0.52;;
41903;SDS011;27586;51.124;4.182;2023-04-25T12:10:40;2.28;;;0.60;;
41903;SDS011;27586;51.124;4.182;2023-04-25T12:13:23;0.63;;;0.63;;
41903;SDS011;27586;51.124;4.182;2023-04-25T12:15:50;1.95;;;0.68;;
41903;SDS011;27586;51.124;4.182;2023-04-25T12:18:19;2.03;;;1.08;;
41903;SDS011;27586;51.124;4.182;2023-04-25T12:20:46;0.55;;;0.45;;
41903;SDS011;27586;51.124;4.182;2023-04-25T12:23:12;0.98;;;0.70;;
41903;SDS011;27586;51.124;4.182;2023-04-25T12:25:41;1.60;;;0.77;;
41903;SDS011;27586;51.124;4.182;2023-04-25T12:33:19;0.93;;;0.60;;
41903;SDS011;27586;51.124;4.182;2023-04-25T12:35:44;2.75;;;0.68;;
41903;SDS011;27586;51.124;4.182;2023-04-25T12:38:10;1.90;;;0.65;;
41903;SDS011;27586;51.124;4.182;2023-04-25T12:40:36;1.75;;;0.85;;
41903;SDS011;27586;51.124;4.182;2023-04-25T12:43:02;0.95;;;0.60;;
41903;SDS011;27586;51.124;4.182;2023-04-25T12:45:27;1.10;;;0.50;;
41903;SDS011;27586;51.124;4.182;2023-04-25T12:47:53;0.57;;;0.50;;
41903;SDS011;27586;51.124;4.182;2023-04-25T12:50:18;2.33;;;0.73;;
41903;SDS011;27586;51.124;4.182;2023-04-25T12:52:44;1.05;;;0.70;;
41903;SDS011;27586;51.124;4.182;2023-04-25T12:55:10;1.40;;;0.60;;
41903;SDS011;27586;51.124;4.182;2023-04-25T12:57:36;0.85;;;0.70;;
41903;SDS011;27586;51.124;4.182;2023-04-25T13:00:02;0.98;;;0.77;;
41903;SDS011;27586;51.124;4.182;2023-04-25T13:02:29;1.70;;;1.00;;
41903;SDS011;27586;51.124;4.182;2023-04-25T13:04:54;0.90;;;0.60;;
41903;SDS011;27586;51.124;4.182;2023-04-25T13:07:20;0.98;;;0.70;;
41903;SDS011;27586;51.124;4.182;2023-04-25T13:09:46;1.27;;;0.50;;
41903;SDS011;27586;51.124;4.182;2023-04-25T13:12:11;1.50;;;0.63;;
41903;SDS011;27586;51.124;4.182;2023-04-25T13:14:37;1.15;;;0.70;;
41903;SDS011;27586;51.124;4.182;2023-04-25T13:17:03;1.17;;;0.70;;
41903;SDS011;27586;51.124;4.182;2023-04-25T13:19:28;2.50;;;0.80;;
41903;SDS011;27586;51.124;4.182;2023-04-25T13:21:54;0.95;;;0.50;;
41903;SDS011;27586;51.124;4.182;2023-04-25T13:24:20;1.40;;;0.65;;
41903;SDS011;27586;51.124;4.182;2023-04-25T13:26:45;1.23;;;0.50;;
41903;SDS011;27586;51.124;4.182;2023-04-25T13:29:11;1.58;;;0.73;;
41903;SDS011;27586;51.124;4.182;2023-04-25T13:31:37;1.27;;;0.70;;
41903;SDS011;27586;51.124;4.182;2023-04-25T13:34:02;3.10;;;0.90;;
41903;SDS011;27586;51.124;4.182;2023-04-25T13:36:28;1.95;;;0.80;;
41903;SDS011;27586;51.124;4.182;2023-04-25T13:38:54;1.65;;;0.60;;
41903;SDS011;27586;51.124;4.182;2023-04-25T13:41:19;1.65;;;0.75;;
41903;SDS011;27586;51.124;4.182;2023-04-25T13:43:46;1.20;;;0.73;;
41903;SDS011;27586;51.124;4.182;2023-04-25T13:46:12;1.13;;;0.60;;
41903;SDS011;27586;51.124;4.182;2023-04-25T13:48:40;1.67;;;0.70;;
41903;SDS011;27586;51.124;4.182;2023-04-25T13:51:11;2.45;;;0.85;;
41903;SDS011;27586;51.124;4.182;2023-04-25T13:53:37;1.67;;;0.90;;
41903;SDS011;27586;51.124;4.182;2023-04-25T13:56:02;1.10;;;0.60;;
41903;SDS011;27586;51.124;4.182;2023-04-25T13:58:29;1.83;;;1.15;;
41903;SDS011;27586;51.124;4.182;2023-04-25T14:00:55;2.40;;;0.65;;
41903;SDS011;27586;51.124;4.182;2023-04-25T14:03:21;2.25;;;0.50;;
41903;SDS011;27586;51.124;4.182;2023-04-25T14:05:46;0.73;;;0.50;;
41903;SDS011;27586;51.124;4.182;2023-04-25T14:08:12;1.40;;;0.82;;
41903;SDS011;27586;51.124;4.182;2023-04-25T14:10:38;2.45;;;0.82;;
41903;SDS011;27586;51.124;4.182;2023-04-25T14:13:04;1.80;;;0.90;;
41903;SDS011;27586;51.124;4.182;2023-04-25T14:15:31;0.75;;;0.40;;
41903;SDS011;27586;51.124;4.182;2023-04-25T14:17:57;0.80;;;0.50;;
41903;SDS011;27586;51.124;4.182;2023-04-25T14:20:22;1.20;;;0.65;;
41903;SDS011;27586;51.124;4.182;2023-04-25T14:22:49;2.03;;;0.70;;
41903;SDS011;27586;51.124;4.182;2023-04-25T14:25:14;1.25;;;0.70;;
41903;SDS011;27586;51.124;4.182;2023-04-25T14:27:40;0.90;;;0.52;;
41903;SDS011;27586;51.124;4.182;2023-04-25T14:30:06;2.67;;;0.80;;
41903;SDS011;27586;51.124;4.182;2023-04-25T14:32:34;1.00;;;0.70;;
41903;SDS011;27586;51.124;4.182;2023-04-25T14:35:00;2.92;;;0.80;;
41903;SDS011;27586;51.124;4.182;2023-04-25T14:37:25;1.65;;;0.68;;
41903;SDS011;27586;51.124;4.182;2023-04-25T14:39:51;3.22;;;0.98;;
41903;SDS011;27586;51.124;4.182;2023-04-25T14:42:16;1.23;;;0.80;;
41903;SDS011;27586;51.124;4.182;2023-04-25T14:44:42;2.92;;;0.80;;
41903;SDS011;27586;51.124;4.182;2023-04-25T14:47:08;4.40;;;4.00;;
41903;SDS011;27586;51.124;4.182;2023-04-25T14:49:33;1.83;;;0.90;;
41903;SDS011;27586;51.124;4.182;2023-04-25T14:51:59;2.97;;;0.82;;
41903;SDS011;27586;51.124;4.182;2023-04-25T14:54:26;1.58;;;1.08;;
41903;SDS011;27586;51.124;4.182;2023-04-25T14:56:51;1.48;;;0.75;;
41903;SDS011;27586;51.124;4.182;2023-04-25T14:59:17;1.35;;;0.57;;